KMRY/MRY METAR and TAF weather

Enter ICAO airport designator
Station Type Date Time Source
KMRY METAR 2018/12/12 10:54 UTC NOAA

KMRY 121054Z AUTO 07003KT 10SM FEW032 08/06 A3022 RMK AO2 SLP248 T00830056


Station Type Date Time Source
KMRY Decoded METAR 2018/12/12 10:54 UTC NOAA

MONTEREY PENINSULA AIRPORT, CA, United States (KMRY) 36-35N 121-51W 66M
Dec 12, 2018 - 05:54 AM EST / 2018.12.12 1054 UTC
Wind: from the ENE (070 degrees) at 3 MPH (3 KT):0
Visibility: 10 mile(s):0
Sky conditions: mostly clear
Temperature: 46.9 F (8.3 C)
Dew Point: 42.1 F (5.6 C)
Relative Humidity: 83%
Pressure (altimeter): 30.22 in. Hg (1023 hPa)
ob: KMRY 121054Z AUTO 07003KT 10SM FEW032 08/06 A3022 RMK AO2 SLP248 T00830056
cycle: 11

Station Type Date Time Source
KMRY TAF 2018/12/12 12:33 UTC NOAA

TAF KMRY 121130Z 1212/1312 10004KT P6SM FEW010 SCT030 SCT200
FM121900 34008KT P6SM FEW012 SCT200
FM122200 31008KT P6SM FEW200
FM130400 07004KT P6SM FEW200


Example: see airport list